createdAt,value
2022-10-18T00:02:20.408Z,60.09
2022-10-18T00:17:22.451Z,60.95
2022-10-18T00:32:25.354Z,61.67
2022-10-18T00:47:27.428Z,61.13
2022-10-18T01:02:29.708Z,59.79
2022-10-18T01:17:48.950Z,58.12
2022-10-18T01:33:09.621Z,56.88
2022-10-18T01:48:13.148Z,56.65
2022-10-18T02:03:26.464Z,56.76
2022-10-18T02:18:35.677Z,56.59
2022-10-18T02:33:53.726Z,57.28
2022-10-18T02:48:55.553Z,56.48
2022-10-18T03:03:58.115Z,56.41
2022-10-18T03:19:00.111Z,56.41
2022-10-18T03:34:01.976Z,56.27
2022-10-18T03:49:03.864Z,56.38
2022-10-18T04:04:05.729Z,55.66
2022-10-18T04:19:07.646Z,55.21
2022-10-18T04:34:10.594Z,56.19
2022-10-18T04:49:12.486Z,56.49
2022-10-18T05:04:14.424Z,55.09
2022-10-18T05:19:16.506Z,53.44
2022-10-18T05:34:22.297Z,50.05
2022-10-18T05:49:24.325Z,46.50
2022-10-18T06:04:26.209Z,42.50
2022-10-18T06:19:28.143Z,40.58
2022-10-18T06:34:32.622Z,38.30
2022-10-18T06:49:34.468Z,37.43
2022-10-18T07:04:36.421Z,36.62
2022-10-18T07:19:38.336Z,35.41
2022-10-18T07:34:40.214Z,32.80
2022-10-18T07:49:42.092Z,30.34
2022-10-18T08:04:43.935Z,28.88
2022-10-18T08:19:58.311Z,27.62
2022-10-18T08:35:09.364Z,26.67
2022-10-18T08:50:18.787Z,26.28
2022-10-18T09:05:36.665Z,24.87
2022-10-18T09:21:17.836Z,25.55
2022-10-18T09:36:24.516Z,25.11
2022-10-18T09:51:37.564Z,24.18
2022-10-18T10:06:55.788Z,24.52
2022-10-18T10:22:10.869Z,25.16
2022-10-18T10:37:30.135Z,24.70
2022-10-18T10:52:32.300Z,24.24
2022-10-18T11:07:39.717Z,24.88
2022-10-18T11:22:57.113Z,24.52
2022-10-18T11:38:18.968Z,23.86
2022-10-18T11:53:31.926Z,22.83
2022-10-18T12:08:50.994Z,24.14
2022-10-18T12:24:00.218Z,28.56
2022-10-18T13:20:40.954Z,32.15
2022-10-18T13:36:01.819Z,31.71
2022-10-18T13:51:36.079Z,31.19
2022-10-18T14:06:43.843Z,30.88
2022-10-18T14:21:57.006Z,31.44
2022-10-18T14:36:58.956Z,32.04
2022-10-18T14:52:01.217Z,33.12
2022-10-18T15:07:13.450Z,35.92
2022-10-18T15:22:32.183Z,36.97
2022-10-18T15:37:44.444Z,37.51
2022-10-18T15:52:46.321Z,37.71
2022-10-18T16:29:50.852Z,37.68
2022-10-18T16:44:55.159Z,38.58
2022-10-18T16:59:57.493Z,39.06
2022-10-18T17:14:59.472Z,40.29
2022-10-18T17:30:01.331Z,41.31
2022-10-18T17:45:03.384Z,42.11
2022-10-18T18:00:08.153Z,42.46
2022-10-18T18:15:10.169Z,43.26
2022-10-18T18:30:12.259Z,43.41
2022-10-18T18:45:14.232Z,44.37
2022-10-18T19:00:16.156Z,43.81
2022-10-18T19:15:18.788Z,43.91
2022-10-18T19:30:20.673Z,44.30
2022-10-18T19:45:22.564Z,44.80
2022-10-18T20:00:24.472Z,45.41
2022-10-18T20:15:26.415Z,45.40
2022-10-18T20:30:28.246Z,45.62
2022-10-18T20:45:30.132Z,45.98
2022-10-18T21:00:32.341Z,47.36
2022-10-18T21:15:34.280Z,47.78
2022-10-18T21:30:36.110Z,48.03
2022-10-18T21:45:38.205Z,48.43
2022-10-18T22:00:40.367Z,49.84
2022-10-18T22:15:42.208Z,50.29
2022-10-18T22:30:44.077Z,52.20
2022-10-18T22:45:45.980Z,53.60
2022-10-18T23:24:49.458Z,54.25
2022-10-18T23:39:51.325Z,54.93
2022-10-18T23:54:53.257Z,56.31
